TimeCST,TemperatureF,Dew PointF,Humidity,Sea Level PressureIn,VisibilityMPH,Wind Direction,Wind SpeedMPH,Gust SpeedMPH,PrecipitationIn,Events,Conditions,WindDirDegrees,DateUTC
12:15 AM,41.0,39.2,93,30.11,10.0,NE,3.5,-,N/A,,Light Drizzle,40,2013-01-17 06:15:00
12:35 AM,41.0,39.2,93,30.09,10.0,East,3.5,-,N/A,Rain,Light Rain,80,2013-01-17 06:35:00
12:55 AM,41.0,39.2,93,30.11,10.0,ENE,4.6,-,N/A,,Overcast,60,2013-01-17 06:55:00
1:15 AM,41.0,39.2,93,30.10,10.0,NE,8.1,-,N/A,,Light Drizzle,50,2013-01-17 07:15:00
1:35 AM,39.2,39.2,100,30.10,10.0,ENE,5.8,-,N/A,Rain,Light Rain,60,2013-01-17 07:35:00
2:15 AM,39.2,39.2,100,30.08,10.0,NNE,5.8,-,N/A,Rain,Light Rain,20,2013-01-17 08:15:00
2:35 AM,39.2,37.4,93,30.08,10.0,NNE,5.8,-,N/A,,Mostly Cloudy,30,2013-01-17 08:35:00
2:55 AM,39.2,35.6,87,30.08,10.0,Calm,Calm,-,N/A,,Overcast,0,2013-01-17 08:55:00
3:35 AM,39.2,33.8,81,30.07,10.0,Calm,Calm,-,N/A,,Light Drizzle,0,2013-01-17 09:35:00
3:55 AM,39.2,33.8,81,30.08,10.0,Calm,Calm,-,N/A,,Overcast,0,2013-01-17 09:55:00
4:15 AM,39.2,33.8,81,30.08,10.0,North,3.5,-,N/A,,Overcast,350,2013-01-17 10:15:00
4:35 AM,39.2,30.2,70,30.07,10.0,Calm,Calm,-,N/A,,Overcast,0,2013-01-17 10:35:00
4:55 AM,39.2,30.2,70,30.07,10.0,NNW,4.6,-,N/A,,Overcast,340,2013-01-17 10:55:00
5:15 AM,39.2,30.2,70,30.07,10.0,NNW,3.5,-,N/A,,Overcast,340,2013-01-17 11:15:00
5:35 AM,39.2,28.4,65,30.07,10.0,Calm,Calm,-,N/A,,Overcast,0,2013-01-17 11:35:00
6:15 AM,39.2,30.2,70,30.07,10.0,NNE,3.5,-,N/A,,Overcast,30,2013-01-17 12:15:00
6:35 AM,39.2,30.2,70,30.07,10.0,NNE,3.5,-,N/A,,Overcast,30,2013-01-17 12:35:00
6:55 AM,39.2,30.2,70,30.07,10.0,NNE,3.5,-,N/A,,Overcast,20,2013-01-17 12:55:00
7:15 AM,39.2,30.2,70,30.07,10.0,Calm,Calm,-,N/A,Rain,Light Rain,0,2013-01-17 13:15:00
7:35 AM,39.2,33.8,81,30.07,10.0,Calm,Calm,-,N/A,Rain,Rain,0,2013-01-17 13:35:00
7:55 AM,37.4,33.8,87,30.08,7.0,Calm,Calm,-,N/A,Rain,Rain,0,2013-01-17 13:55:00
8:15 AM,37.4,33.8,87,30.06,5.0,Calm,Calm,-,N/A,Rain,Rain,0,2013-01-17 14:15:00
8:35 AM,37.4,33.8,87,30.09,10.0,Calm,Calm,-,N/A,Rain,Light Rain,0,2013-01-17 14:35:00
8:55 AM,37.4,33.8,87,30.08,10.0,North,3.5,-,N/A,Rain,Light Rain,350,2013-01-17 14:55:00
9:15 AM,37.4,33.8,87,30.08,4.0,North,5.8,-,N/A,Rain,Rain,10,2013-01-17 15:15:00
9:35 AM,37.4,35.6,93,30.07,4.0,North,4.6,-,N/A,Rain,Rain,10,2013-01-17 15:35:00
9:55 AM,37.4,35.6,93,30.04,2.5,ENE,4.6,-,0.02,Rain,Rain,60,2013-01-17 15:55:00
10:15 AM,37.4,35.6,93,30.06,4.0,Calm,Calm,-,0.05,Rain,Rain,0,2013-01-17 16:15:00
10:35 AM,37.4,35.6,93,30.04,5.0,Calm,Calm,-,0.05,Rain,Rain,0,2013-01-17 16:35:00
10:55 AM,37.4,35.6,93,30.05,3.0,Calm,Calm,-,0.01,Rain,Rain,0,2013-01-17 16:55:00
11:15 AM,37.4,35.6,93,30.02,4.0,NNE,5.8,-,0.03,Rain,Rain,20,2013-01-17 17:15:00
11:35 AM,37.4,35.6,93,30.03,7.0,North,4.6,-,0.05,Rain,Rain,360,2013-01-17 17:35:00
11:55 AM,37.4,35.6,93,30.01,5.0,North,9.2,-,0.01,Rain,Rain,10,2013-01-17 17:55:00
12:15 PM,35.6,33.8,93,30.03,5.0,NNW,10.4,-,0.03,,Overcast,340,2013-01-17 18:15:00
12:35 PM,33.8,33.8,100,30.04,0.5,North,5.8,-,0.08,Snow,Snow,10,2013-01-17 18:35:00
12:55 PM,33.8,33.8,100,30.02,0.2,North,3.5,-,0.02,Snow,Heavy Snow,10,2013-01-17 18:55:00
1:15 PM,33.8,33.8,100,30.01,0.2,Calm,Calm,-,0.07,Snow,Snow,0,2013-01-17 19:15:00
2:15 PM,33.8,33.8,100,30.03,0.5,Calm,Calm,-,0.04,Snow,Snow,0,2013-01-17 20:15:00
2:35 PM,33.8,33.8,100,30.03,0.8,Calm,Calm,-,0.05,Snow,Light Snow,0,2013-01-17 20:35:00
2:55 PM,35.6,33.8,93,30.03,10.0,Calm,Calm,-,N/A,Snow,Light Snow,0,2013-01-17 20:55:00
4:55 PM,35.6,35.6,100,30.11,10.0,NNE,6.9,-,N/A,,Overcast,20,2013-01-17 22:55:00
5:35 PM,35.6,35.6,100,30.16,10.0,North,4.6,-,N/A,,Overcast,350,2013-01-17 23:35:00
7:15 PM,35.6,33.8,93,30.24,10.0,NNW,4.6,-,N/A,,Overcast,330,2013-01-18 01:15:00
7:55 PM,35.6,33.8,93,30.27,10.0,NNW,4.6,-,N/A,,Overcast,340,2013-01-18 01:55:00
8:15 PM,35.6,33.8,93,30.28,10.0,Calm,Calm,-,N/A,,Overcast,0,2013-01-18 02:15:00
8:55 PM,33.8,30.2,87,30.31,10.0,Calm,Calm,-,N/A,,Scattered Clouds,0,2013-01-18 02:55:00
9:15 PM,30.2,30.2,100,30.31,10.0,Calm,Calm,-,N/A,,Clear,0,2013-01-18 03:15:00
9:35 PM,30.2,28.4,93,30.32,2.0,Calm,Calm,-,N/A,,Clear,0,2013-01-18 03:35:00
9:55 PM,28.4,28.4,100,30.33,0.2,Calm,Calm,-,N/A,Fog,Light Freezing Fog,0,2013-01-18 03:55:00
11:15 PM,26.6,26.6,100,30.35,0.2,Calm,Calm,-,N/A,Fog,Light Freezing Fog,0,2013-01-18 05:15:00
11:35 PM,26.6,26.6,100,30.36,0.5,Calm,Calm,-,N/A,Fog,Light Freezing Fog,0,2013-01-18 05:35:00
11:55 PM,26.6,24.8,93,30.37,0.5,Calm,Calm,-,N/A,Fog,Light Freezing Fog,0,2013-01-18 05:55:00